sensor_id;sensor_type;location;lat;lon;timestamp;P1;durP1;ratioP1;P2;durP2;ratioP2
76171;SDS011;64929;51.178;4.138;2023-05-07T00:01:42;5.90;;;4.40;;
76171;SDS011;64929;51.178;4.138;2023-05-07T00:04:08;5.90;;;4.43;;
76171;SDS011;64929;51.178;4.138;2023-05-07T00:06:34;5.50;;;4.35;;
76171;SDS011;64929;51.178;4.138;2023-05-07T00:09:00;6.47;;;4.28;;
76171;SDS011;64929;51.178;4.138;2023-05-07T00:11:26;6.60;;;4.38;;
76171;SDS011;64929;51.178;4.138;2023-05-07T00:13:52;8.23;;;4.60;;
76171;SDS011;64929;51.178;4.138;2023-05-07T00:16:18;7.15;;;4.75;;
76171;SDS011;64929;51.178;4.138;2023-05-07T00:18:44;7.45;;;4.55;;
76171;SDS011;64929;51.178;4.138;2023-05-07T00:21:10;6.40;;;4.63;;
76171;SDS011;64929;51.178;4.138;2023-05-07T00:23:36;5.63;;;4.35;;
76171;SDS011;64929;51.178;4.138;2023-05-07T00:26:02;4.38;;;3.67;;
76171;SDS011;64929;51.178;4.138;2023-05-07T00:28:28;5.97;;;4.10;;
76171;SDS011;64929;51.178;4.138;2023-05-07T00:30:54;4.90;;;3.83;;
76171;SDS011;64929;51.178;4.138;2023-05-07T00:33:20;7.03;;;3.80;;
76171;SDS011;64929;51.178;4.138;2023-05-07T00:35:47;5.72;;;3.72;;
76171;SDS011;64929;51.178;4.138;2023-05-07T00:38:13;6.28;;;4.03;;
76171;SDS011;64929;51.178;4.138;2023-05-07T00:40:39;7.13;;;3.97;;
76171;SDS011;64929;51.178;4.138;2023-05-07T00:43:05;6.53;;;4.20;;
76171;SDS011;64929;51.178;4.138;2023-05-07T00:45:31;5.93;;;3.88;;
76171;SDS011;64929;51.178;4.138;2023-05-07T00:48:00;6.25;;;3.92;;
76171;SDS011;64929;51.178;4.138;2023-05-07T00:50:27;7.78;;;4.32;;
76171;SDS011;64929;51.178;4.138;2023-05-07T00:52:53;6.00;;;4.20;;
76171;SDS011;64929;51.178;4.138;2023-05-07T00:55:22;4.57;;;3.97;;
76171;SDS011;64929;51.178;4.138;2023-05-07T00:57:49;7.45;;;4.47;;
76171;SDS011;64929;51.178;4.138;2023-05-07T01:00:16;5.80;;;3.90;;
76171;SDS011;64929;51.178;4.138;2023-05-07T01:02:43;5.70;;;4.00;;
76171;SDS011;64929;51.178;4.138;2023-05-07T01:05:12;6.43;;;3.95;;
76171;SDS011;64929;51.178;4.138;2023-05-07T01:07:39;6.82;;;4.57;;
76171;SDS011;64929;51.178;4.138;2023-05-07T01:10:07;8.07;;;4.50;;
76171;SDS011;64929;51.178;4.138;2023-05-07T01:12:34;6.25;;;4.75;;
76171;SDS011;64929;51.178;4.138;2023-05-07T01:15:01;7.45;;;5.20;;
76171;SDS011;64929;51.178;4.138;2023-05-07T01:17:28;6.35;;;4.53;;
76171;SDS011;64929;51.178;4.138;2023-05-07T01:19:53;7.80;;;4.63;;
76171;SDS011;64929;51.178;4.138;2023-05-07T01:22:35;6.57;;;4.32;;
76171;SDS011;64929;51.178;4.138;2023-05-07T01:25:04;7.97;;;5.05;;
76171;SDS011;64929;51.178;4.138;2023-05-07T01:27:32;10.02;;;4.90;;
76171;SDS011;64929;51.178;4.138;2023-05-07T01:30:02;6.63;;;4.53;;
76171;SDS011;64929;51.178;4.138;2023-05-07T01:32:29;6.10;;;4.13;;
76171;SDS011;64929;51.178;4.138;2023-05-07T01:35:01;7.28;;;4.80;;
76171;SDS011;64929;51.178;4.138;2023-05-07T01:37:30;7.78;;;4.93;;
76171;SDS011;64929;51.178;4.138;2023-05-07T01:39:55;9.05;;;4.90;;
76171;SDS011;64929;51.178;4.138;2023-05-07T01:42:22;9.07;;;5.30;;
76171;SDS011;64929;51.178;4.138;2023-05-07T01:44:48;6.70;;;4.85;;
76171;SDS011;64929;51.178;4.138;2023-05-07T01:47:14;7.85;;;5.32;;
76171;SDS011;64929;51.178;4.138;2023-05-07T01:49:41;5.75;;;4.85;;
76171;SDS011;64929;51.178;4.138;2023-05-07T01:52:09;6.47;;;4.80;;
76171;SDS011;64929;51.178;4.138;2023-05-07T01:54:36;6.05;;;4.50;;
76171;SDS011;64929;51.178;4.138;2023-05-07T01:57:01;6.60;;;5.07;;
76171;SDS011;64929;51.178;4.138;2023-05-07T01:59:27;5.63;;;4.60;;
76171;SDS011;64929;51.178;4.138;2023-05-07T02:01:53;6.80;;;4.82;;
76171;SDS011;64929;51.178;4.138;2023-05-07T02:04:18;8.10;;;4.75;;
76171;SDS011;64929;51.178;4.138;2023-05-07T02:06:44;7.63;;;4.85;;
76171;SDS011;64929;51.178;4.138;2023-05-07T02:09:10;7.75;;;4.65;;
76171;SDS011;64929;51.178;4.138;2023-05-07T02:11:36;5.13;;;4.57;;
76171;SDS011;64929;51.178;4.138;2023-05-07T02:14:01;8.85;;;4.85;;
76171;SDS011;64929;51.178;4.138;2023-05-07T02:16:27;6.53;;;5.03;;
76171;SDS011;64929;51.178;4.138;2023-05-07T02:18:53;6.78;;;5.32;;
76171;SDS011;64929;51.178;4.138;2023-05-07T02:21:18;6.32;;;4.68;;
76171;SDS011;64929;51.178;4.138;2023-05-07T02:23:44;8.65;;;5.32;;
76171;SDS011;64929;51.178;4.138;2023-05-07T02:26:13;8.23;;;4.78;;
76171;SDS011;64929;51.178;4.138;2023-05-07T02:28:38;6.95;;;4.85;;
76171;SDS011;64929;51.178;4.138;2023-05-07T02:31:04;6.38;;;5.22;;
76171;SDS011;64929;51.178;4.138;2023-05-07T02:33:30;8.25;;;5.53;;
76171;SDS011;64929;51.178;4.138;2023-05-07T02:35:56;6.80;;;5.32;;
76171;SDS011;64929;51.178;4.138;2023-05-07T02:38:22;6.78;;;5.20;;
76171;SDS011;64929;51.178;4.138;2023-05-07T02:40:48;7.63;;;5.57;;
76171;SDS011;64929;51.178;4.138;2023-05-07T02:43:14;9.60;;;5.93;;
76171;SDS011;64929;51.178;4.138;2023-05-07T02:45:40;6.82;;;5.75;;
76171;SDS011;64929;51.178;4.138;2023-05-07T02:48:05;7.03;;;5.47;;
76171;SDS011;64929;51.178;4.138;2023-05-07T02:50:31;6.90;;;5.00;;
76171;SDS011;64929;51.178;4.138;2023-05-07T02:52:57;10.75;;;5.53;;
76171;SDS011;64929;51.178;4.138;2023-05-07T02:55:23;6.60;;;4.95;;
76171;SDS011;64929;51.178;4.138;2023-05-07T02:57:49;9.57;;;5.38;;
76171;SDS011;64929;51.178;4.138;2023-05-07T03:00:15;8.05;;;5.32;;
76171;SDS011;64929;51.178;4.138;2023-05-07T03:02:42;7.13;;;5.60;;
76171;SDS011;64929;51.178;4.138;2023-05-07T03:05:11;7.20;;;4.97;;
76171;SDS011;64929;51.178;4.138;2023-05-07T03:07:37;10.25;;;6.07;;
76171;SDS011;64929;51.178;4.138;2023-05-07T03:10:03;8.85;;;6.07;;
76171;SDS011;64929;51.178;4.138;2023-05-07T03:12:30;8.07;;;5.50;;
76171;SDS011;64929;51.178;4.138;2023-05-07T03:14:56;9.20;;;5.53;;
76171;SDS011;64929;51.178;4.138;2023-05-07T03:17:22;8.48;;;5.85;;
76171;SDS011;64929;51.178;4.138;2023-05-07T03:19:47;8.95;;;5.35;;
76171;SDS011;64929;51.178;4.138;2023-05-07T03:22:13;7.45;;;4.93;;
76171;SDS011;64929;51.178;4.138;2023-05-07T03:24:39;7.57;;;5.63;;
76171;SDS011;64929;51.178;4.138;2023-05-07T03:27:05;8.77;;;5.65;;
76171;SDS011;64929;51.178;4.138;2023-05-07T03:29:31;7.28;;;5.28;;
76171;SDS011;64929;51.178;4.138;2023-05-07T03:31:56;6.47;;;5.68;;
76171;SDS011;64929;51.178;4.138;2023-05-07T03:34:22;10.02;;;5.70;;
76171;SDS011;64929;51.178;4.138;2023-05-07T03:36:48;6.72;;;5.57;;
76171;SDS011;64929;51.178;4.138;2023-05-07T03:39:14;7.35;;;5.75;;
76171;SDS011;64929;51.178;4.138;2023-05-07T03:41:40;7.68;;;6.13;;
76171;SDS011;64929;51.178;4.138;2023-05-07T03:44:05;8.77;;;6.20;;
76171;SDS011;64929;51.178;4.138;2023-05-07T03:46:31;7.75;;;5.70;;
76171;SDS011;64929;51.178;4.138;2023-05-07T03:48:57;7.32;;;5.88;;
76171;SDS011;64929;51.178;4.138;2023-05-07T03:51:23;7.18;;;5.65;;
76171;SDS011;64929;51.178;4.138;2023-05-07T03:53:50;7.75;;;5.60;;
76171;SDS011;64929;51.178;4.138;2023-05-07T03:56:18;8.45;;;5.75;;
76171;SDS011;64929;51.178;4.138;2023-05-07T03:58:44;6.80;;;6.07;;
76171;SDS011;64929;51.178;4.138;2023-05-07T04:01:10;10.60;;;6.43;;
76171;SDS011;64929;51.178;4.138;2023-05-07T04:03:36;8.02;;;6.28;;
76171;SDS011;64929;51.178;4.138;2023-05-07T04:06:02;9.68;;;6.00;;
76171;SDS011;64929;51.178;4.138;2023-05-07T04:08:28;8.75;;;6.28;;
76171;SDS011;64929;51.178;4.138;2023-05-07T04:10:56;8.00;;;6.47;;
76171;SDS011;64929;51.178;4.138;2023-05-07T04:13:23;7.35;;;5.97;;
76171;SDS011;64929;51.178;4.138;2023-05-07T04:15:49;8.13;;;5.82;;
76171;SDS011;64929;51.178;4.138;2023-05-07T04:18:15;10.65;;;6.57;;
76171;SDS011;64929;51.178;4.138;2023-05-07T04:20:41;7.65;;;6.05;;
76171;SDS011;64929;51.178;4.138;2023-05-07T04:23:07;8.40;;;6.60;;
76171;SDS011;64929;51.178;4.138;2023-05-07T04:25:33;9.30;;;7.03;;
76171;SDS011;64929;51.178;4.138;2023-05-07T04:27:59;7.45;;;6.30;;
76171;SDS011;64929;51.178;4.138;2023-05-07T04:30:24;7.00;;;6.05;;
76171;SDS011;64929;51.178;4.138;2023-05-07T04:32:50;9.70;;;6.70;;
76171;SDS011;64929;51.178;4.138;2023-05-07T04:35:17;8.88;;;6.72;;
76171;SDS011;64929;51.178;4.138;2023-05-07T04:37:43;11.35;;;6.63;;
76171;SDS011;64929;51.178;4.138;2023-05-07T04:40:09;9.48;;;6.47;;
76171;SDS011;64929;51.178;4.138;2023-05-07T04:42:35;9.60;;;6.85;;
76171;SDS011;64929;51.178;4.138;2023-05-07T04:45:01;9.18;;;6.55;;
76171;SDS011;64929;51.178;4.138;2023-05-07T04:47:27;8.68;;;6.45;;
76171;SDS011;64929;51.178;4.138;2023-05-07T04:49:53;8.52;;;6.63;;
76171;SDS011;64929;51.178;4.138;2023-05-07T04:52:19;7.55;;;6.22;;
76171;SDS011;64929;51.178;4.138;2023-05-07T04:54:45;9.27;;;6.97;;
76171;SDS011;64929;51.178;4.138;2023-05-07T04:57:10;9.52;;;6.00;;
76171;SDS011;64929;51.178;4.138;2023-05-07T04:59:36;9.00;;;6.53;;
76171;SDS011;64929;51.178;4.138;2023-05-07T05:02:02;10.68;;;6.93;;
76171;SDS011;64929;51.178;4.138;2023-05-07T05:04:29;7.32;;;5.63;;
76171;SDS011;64929;51.178;4.138;2023-05-07T05:06:55;8.57;;;6.85;;
76171;SDS011;64929;51.178;4.138;2023-05-07T05:09:20;8.13;;;5.85;;
76171;SDS011;64929;51.178;4.138;2023-05-07T05:11:46;10.05;;;6.80;;
76171;SDS011;64929;51.178;4.138;2023-05-07T05:14:12;8.10;;;6.47;;
76171;SDS011;64929;51.178;4.138;2023-05-07T05:16:37;7.68;;;6.45;;
76171;SDS011;64929;51.178;4.138;2023-05-07T05:19:03;8.88;;;7.13;;
76171;SDS011;64929;51.178;4.138;2023-05-07T05:21:29;9.18;;;6.60;;
76171;SDS011;64929;51.178;4.138;2023-05-07T05:23:55;9.00;;;6.68;;
76171;SDS011;64929;51.178;4.138;2023-05-07T05:26:21;7.05;;;6.05;;
76171;SDS011;64929;51.178;4.138;2023-05-07T05:28:47;8.40;;;6.70;;
76171;SDS011;64929;51.178;4.138;2023-05-07T05:31:12;9.98;;;6.53;;
76171;SDS011;64929;51.178;4.138;2023-05-07T05:33:39;8.80;;;6.15;;
76171;SDS011;64929;51.178;4.138;2023-05-07T05:36:05;7.95;;;6.57;;
76171;SDS011;64929;51.178;4.138;2023-05-07T05:38:31;10.50;;;7.80;;
76171;SDS011;64929;51.178;4.138;2023-05-07T05:40:57;8.55;;;6.93;;
76171;SDS011;64929;51.178;4.138;2023-05-07T05:43:23;9.95;;;6.63;;
76171;SDS011;64929;51.178;4.138;2023-05-07T05:45:48;8.23;;;6.47;;
76171;SDS011;64929;51.178;4.138;2023-05-07T05:48:14;8.90;;;6.43;;
76171;SDS011;64929;51.178;4.138;2023-05-07T05:50:41;7.65;;;6.60;;
76171;SDS011;64929;51.178;4.138;2023-05-07T05:53:07;7.72;;;6.53;;
76171;SDS011;64929;51.178;4.138;2023-05-07T05:55:33;10.02;;;7.05;;
76171;SDS011;64929;51.178;4.138;2023-05-07T05:58:00;10.07;;;6.55;;
76171;SDS011;64929;51.178;4.138;2023-05-07T06:00:26;9.77;;;7.43;;
76171;SDS011;64929;51.178;4.138;2023-05-07T06:02:52;7.72;;;6.20;;
76171;SDS011;64929;51.178;4.138;2023-05-07T06:05:18;9.40;;;6.85;;
76171;SDS011;64929;51.178;4.138;2023-05-07T06:07:43;9.93;;;6.95;;
76171;SDS011;64929;51.178;4.138;2023-05-07T06:10:09;7.70;;;6.80;;
76171;SDS011;64929;51.178;4.138;2023-05-07T06:12:35;7.47;;;6.38;;
76171;SDS011;64929;51.178;4.138;2023-05-07T06:15:01;10.73;;;7.15;;
76171;SDS011;64929;51.178;4.138;2023-05-07T06:17:27;7.90;;;6.65;;
76171;SDS011;64929;51.178;4.138;2023-05-07T06:19:52;8.00;;;6.80;;
76171;SDS011;64929;51.178;4.138;2023-05-07T06:22:18;10.38;;;7.40;;
76171;SDS011;64929;51.178;4.138;2023-05-07T06:24:44;8.73;;;6.95;;
76171;SDS011;64929;51.178;4.138;2023-05-07T06:27:10;8.75;;;6.65;;
76171;SDS011;64929;51.178;4.138;2023-05-07T06:29:35;9.90;;;7.38;;
76171;SDS011;64929;51.178;4.138;2023-05-07T06:32:08;10.77;;;7.10;;
76171;SDS011;64929;51.178;4.138;2023-05-07T06:34:34;7.63;;;6.82;;
76171;SDS011;64929;51.178;4.138;2023-05-07T06:37:00;10.52;;;6.72;;
76171;SDS011;64929;51.178;4.138;2023-05-07T06:39:26;9.10;;;7.18;;
76171;SDS011;64929;51.178;4.138;2023-05-07T06:41:52;9.52;;;7.28;;
76171;SDS011;64929;51.178;4.138;2023-05-07T06:44:18;8.98;;;6.72;;
76171;SDS011;64929;51.178;4.138;2023-05-07T06:46:43;8.07;;;6.43;;
76171;SDS011;64929;51.178;4.138;2023-05-07T06:49:10;8.05;;;6.20;;
76171;SDS011;64929;51.178;4.138;2023-05-07T06:51:36;9.38;;;6.63;;
76171;SDS011;64929;51.178;4.138;2023-05-07T06:54:01;8.57;;;6.22;;
76171;SDS011;64929;51.178;4.138;2023-05-07T06:56:29;9.85;;;6.13;;
76171;SDS011;64929;51.178;4.138;2023-05-07T06:58:55;6.72;;;5.75;;
76171;SDS011;64929;51.178;4.138;2023-05-07T07:01:20;7.30;;;5.65;;
76171;SDS011;64929;51.178;4.138;2023-05-07T07:03:46;11.43;;;5.72;;
76171;SDS011;64929;51.178;4.138;2023-05-07T07:06:12;6.18;;;4.47;;
76171;SDS011;64929;51.178;4.138;2023-05-07T07:08:38;5.85;;;4.28;;
76171;SDS011;64929;51.178;4.138;2023-05-07T07:11:07;5.45;;;3.58;;
76171;SDS011;64929;51.178;4.138;2023-05-07T07:13:35;6.20;;;3.80;;
76171;SDS011;64929;51.178;4.138;2023-05-07T07:16:01;5.65;;;3.90;;
76171;SDS011;64929;51.178;4.138;2023-05-07T07:18:27;7.45;;;3.88;;
76171;SDS011;64929;51.178;4.138;2023-05-07T07:20:53;6.97;;;4.38;;
76171;SDS011;64929;51.178;4.138;2023-05-07T07:23:19;5.65;;;3.92;;
76171;SDS011;64929;51.178;4.138;2023-05-07T07:25:45;5.85;;;4.10;;
76171;SDS011;64929;51.178;4.138;2023-05-07T07:28:10;4.28;;;3.75;;
76171;SDS011;64929;51.178;4.138;2023-05-07T07:30:37;7.07;;;3.80;;
76171;SDS011;64929;51.178;4.138;2023-05-07T07:33:02;7.90;;;3.83;;
76171;SDS011;64929;51.178;4.138;2023-05-07T07:35:29;5.07;;;4.10;;
76171;SDS011;64929;51.178;4.138;2023-05-07T07:37:55;5.47;;;3.72;;
76171;SDS011;64929;51.178;4.138;2023-05-07T07:40:21;4.38;;;3.80;;
76171;SDS011;64929;51.178;4.138;2023-05-07T07:42:46;5.75;;;3.97;;
76171;SDS011;64929;51.178;4.138;2023-05-07T07:45:12;7.05;;;4.05;;
76171;SDS011;64929;51.178;4.138;2023-05-07T07:47:38;7.32;;;3.95;;
76171;SDS011;64929;51.178;4.138;2023-05-07T07:50:05;5.38;;;4.03;;
76171;SDS011;64929;51.178;4.138;2023-05-07T07:52:32;7.65;;;3.88;;
76171;SDS011;64929;51.178;4.138;2023-05-07T07:54:58;8.27;;;4.57;;
76171;SDS011;64929;51.178;4.138;2023-05-07T07:57:23;5.25;;;4.30;;
76171;SDS011;64929;51.178;4.138;2023-05-07T07:59:49;7.28;;;4.13;;
76171;SDS011;64929;51.178;4.138;2023-05-07T08:02:16;7.15;;;4.38;;
76171;SDS011;64929;51.178;4.138;2023-05-07T08:04:42;6.30;;;4.35;;
76171;SDS011;64929;51.178;4.138;2023-05-07T08:07:08;8.75;;;4.38;;
76171;SDS011;64929;51.178;4.138;2023-05-07T08:09:35;5.22;;;3.75;;
76171;SDS011;64929;51.178;4.138;2023-05-07T08:12:02;5.55;;;3.97;;
76171;SDS011;64929;51.178;4.138;2023-05-07T08:14:28;8.05;;;4.00;;
76171;SDS011;64929;51.178;4.138;2023-05-07T08:16:54;6.93;;;3.35;;
76171;SDS011;64929;51.178;4.138;2023-05-07T08:19:20;5.07;;;2.53;;
76171;SDS011;64929;51.178;4.138;2023-05-07T08:21:46;4.88;;;3.08;;
76171;SDS011;64929;51.178;4.138;2023-05-07T08:24:13;6.75;;;2.78;;
76171;SDS011;64929;51.178;4.138;2023-05-07T08:26:39;2.88;;;2.55;;
76171;SDS011;64929;51.178;4.138;2023-05-07T08:29:05;3.47;;;2.67;;
76171;SDS011;64929;51.178;4.138;2023-05-07T08:31:31;4.22;;;2.30;;
76171;SDS011;64929;51.178;4.138;2023-05-07T08:33:57;2.55;;;2.20;;
76171;SDS011;64929;51.178;4.138;2023-05-07T08:36:23;3.53;;;2.47;;
76171;SDS011;64929;51.178;4.138;2023-05-07T08:38:50;3.45;;;2.13;;
76171;SDS011;64929;51.178;4.138;2023-05-07T08:41:17;5.18;;;2.55;;
76171;SDS011;64929;51.178;4.138;2023-05-07T08:43:43;2.55;;;2.30;;
76171;SDS011;64929;51.178;4.138;2023-05-07T08:46:17;4.25;;;2.40;;
76171;SDS011;64929;51.178;4.138;2023-05-07T08:48:44;4.05;;;2.85;;
76171;SDS011;64929;51.178;4.138;2023-05-07T08:51:13;4.90;;;3.53;;
76171;SDS011;64929;51.178;4.138;2023-05-07T08:53:41;4.65;;;2.83;;
76171;SDS011;64929;51.178;4.138;2023-05-07T08:56:08;2.70;;;2.50;;
76171;SDS011;64929;51.178;4.138;2023-05-07T08:58:34;3.78;;;2.83;;
76171;SDS011;64929;51.178;4.138;2023-05-07T09:01:01;3.60;;;2.42;;
76171;SDS011;64929;51.178;4.138;2023-05-07T09:03:32;5.13;;;2.60;;
76171;SDS011;64929;51.178;4.138;2023-05-07T09:05:57;2.75;;;1.90;;
76171;SDS011;64929;51.178;4.138;2023-05-07T09:08:26;4.50;;;1.77;;
76171;SDS011;64929;51.178;4.138;2023-05-07T09:10:53;2.67;;;2.00;;
76171;SDS011;64929;51.178;4.138;2023-05-07T09:13:19;3.90;;;2.25;;
76171;SDS011;64929;51.178;4.138;2023-05-07T09:15:45;3.15;;;2.13;;
76171;SDS011;64929;51.178;4.138;2023-05-07T09:18:10;4.47;;;2.53;;
76171;SDS011;64929;51.178;4.138;2023-05-07T09:20:41;3.30;;;2.25;;
76171;SDS011;64929;51.178;4.138;2023-05-07T09:23:07;4.13;;;2.30;;
76171;SDS011;64929;51.178;4.138;2023-05-07T09:25:34;3.50;;;2.63;;
76171;SDS011;64929;51.178;4.138;2023-05-07T09:28:00;3.03;;;2.30;;
76171;SDS011;64929;51.178;4.138;2023-05-07T09:30:28;4.35;;;2.85;;
76171;SDS011;64929;51.178;4.138;2023-05-07T09:32:57;4.50;;;2.30;;
76171;SDS011;64929;51.178;4.138;2023-05-07T09:35:24;3.90;;;2.40;;
76171;SDS011;64929;51.178;4.138;2023-05-07T09:37:55;3.58;;;2.50;;
76171;SDS011;64929;51.178;4.138;2023-05-07T09:40:24;4.10;;;2.67;;
76171;SDS011;64929;51.178;4.138;2023-05-07T09:42:51;3.72;;;2.60;;
76171;SDS011;64929;51.178;4.138;2023-05-07T09:45:27;3.72;;;2.67;;
76171;SDS011;64929;51.178;4.138;2023-05-07T09:47:54;2.63;;;2.40;;
76171;SDS011;64929;51.178;4.138;2023-05-07T09:50:23;4.55;;;2.80;;
76171;SDS011;64929;51.178;4.138;2023-05-07T09:52:52;3.67;;;2.42;;
76171;SDS011;64929;51.178;4.138;2023-05-07T09:55:20;3.13;;;2.30;;
76171;SDS011;64929;51.178;4.138;2023-05-07T09:57:48;3.22;;;2.38;;
76171;SDS011;64929;51.178;4.138;2023-05-07T10:00:15;3.92;;;2.38;;
76171;SDS011;64929;51.178;4.138;2023-05-07T10:02:52;3.45;;;2.70;;
76171;SDS011;64929;51.178;4.138;2023-05-07T10:05:21;5.15;;;3.03;;
76171;SDS011;64929;51.178;4.138;2023-05-07T10:07:48;2.58;;;2.10;;
76171;SDS011;64929;51.178;4.138;2023-05-07T10:10:14;3.90;;;2.13;;
76171;SDS011;64929;51.178;4.138;2023-05-07T10:12:41;2.65;;;2.20;;
76171;SDS011;64929;51.178;4.138;2023-05-07T10:15:10;3.70;;;2.28;;
76171;SDS011;64929;51.178;4.138;2023-05-07T10:17:37;2.97;;;2.28;;
76171;SDS011;64929;51.178;4.138;2023-05-07T10:20:05;2.75;;;2.38;;
76171;SDS011;64929;51.178;4.138;2023-05-07T10:22:41;6.28;;;3.55;;
76171;SDS011;64929;51.178;4.138;2023-05-07T10:25:14;2.58;;;2.22;;
76171;SDS011;64929;51.178;4.138;2023-05-07T10:27:43;3.58;;;2.05;;
76171;SDS011;64929;51.178;4.138;2023-05-07T10:33:05;4.30;;;2.60;;
76171;SDS011;64929;51.178;4.138;2023-05-07T10:35:40;3.67;;;2.75;;
76171;SDS011;64929;51.178;4.138;2023-05-07T10:38:08;4.55;;;3.08;;
76171;SDS011;64929;51.178;4.138;2023-05-07T10:40:34;5.18;;;3.20;;
76171;SDS011;64929;51.178;4.138;2023-05-07T10:43:01;5.40;;;3.60;;
76171;SDS011;64929;51.178;4.138;2023-05-07T10:45:31;3.20;;;2.80;;
76171;SDS011;64929;51.178;4.138;2023-05-07T10:50:39;4.60;;;2.28;;
76171;SDS011;64929;51.178;4.138;2023-05-07T10:56:23;2.85;;;2.08;;
76171;SDS011;64929;51.178;4.138;2023-05-07T10:58:43;2.47;;;1.90;;
76171;SDS011;64929;51.178;4.138;2023-05-07T11:01:09;3.35;;;1.80;;
76171;SDS011;64929;51.178;4.138;2023-05-07T11:06:38;2.38;;;1.45;;
76171;SDS011;64929;51.178;4.138;2023-05-07T11:09:04;1.23;;;1.13;;
76171;SDS011;64929;51.178;4.138;2023-05-07T11:11:45;3.78;;;1.60;;
76171;SDS011;64929;51.178;4.138;2023-05-07T11:17:09;2.10;;;1.80;;
76171;SDS011;64929;51.178;4.138;2023-05-07T11:19:49;1.75;;;1.30;;
76171;SDS011;64929;51.178;4.138;2023-05-07T11:25:01;3.40;;;1.90;;
76171;SDS011;64929;51.178;4.138;2023-05-07T11:27:27;2.28;;;1.90;;
76171;SDS011;64929;51.178;4.138;2023-05-07T11:29:54;2.83;;;1.35;;
76171;SDS011;64929;51.178;4.138;2023-05-07T11:32:27;3.42;;;1.48;;
76171;SDS011;64929;51.178;4.138;2023-05-07T11:34:54;1.52;;;1.08;;
76171;SDS011;64929;51.178;4.138;2023-05-07T11:37:24;1.90;;;1.48;;
76171;SDS011;64929;51.178;4.138;2023-05-07T11:40:01;1.73;;;1.38;;
76171;SDS011;64929;51.178;4.138;2023-05-07T11:42:32;1.80;;;1.13;;
76171;SDS011;64929;51.178;4.138;2023-05-07T11:45:02;4.88;;;1.60;;
76171;SDS011;64929;51.178;4.138;2023-05-07T11:47:32;2.53;;;1.63;;
76171;SDS011;64929;51.178;4.138;2023-05-07T11:50:03;2.25;;;1.75;;
76171;SDS011;64929;51.178;4.138;2023-05-07T11:52:38;5.80;;;4.85;;
76171;SDS011;64929;51.178;4.138;2023-05-07T11:55:04;5.43;;;2.53;;
76171;SDS011;64929;51.178;4.138;2023-05-07T11:57:33;3.30;;;2.10;;
76171;SDS011;64929;51.178;4.138;2023-05-07T12:00:00;2.30;;;2.10;;
76171;SDS011;64929;51.178;4.138;2023-05-07T12:02:30;2.15;;;1.77;;
76171;SDS011;64929;51.178;4.138;2023-05-07T12:04:56;2.33;;;1.80;;
76171;SDS011;64929;51.178;4.138;2023-05-07T12:07:22;3.15;;;2.15;;
76171;SDS011;64929;51.178;4.138;2023-05-07T12:09:49;2.45;;;2.00;;
76171;SDS011;64929;51.178;4.138;2023-05-07T12:12:15;2.83;;;1.88;;
76171;SDS011;64929;51.178;4.138;2023-05-07T12:14:42;2.80;;;1.95;;
76171;SDS011;64929;51.178;4.138;2023-05-07T12:17:09;2.40;;;1.75;;
76171;SDS011;64929;51.178;4.138;2023-05-07T12:19:39;1.70;;;1.38;;
76171;SDS011;64929;51.178;4.138;2023-05-07T12:22:09;4.07;;;1.95;;
76171;SDS011;64929;51.178;4.138;2023-05-07T12:24:43;1.37;;;1.27;;
76171;SDS011;64929;51.178;4.138;2023-05-07T12:27:21;1.60;;;1.33;;
76171;SDS011;64929;51.178;4.138;2023-05-07T12:29:47;2.88;;;1.55;;
76171;SDS011;64929;51.178;4.138;2023-05-07T12:32:16;2.03;;;1.83;;
76171;SDS011;64929;51.178;4.138;2023-05-07T12:34:43;3.58;;;1.60;;
76171;SDS011;64929;51.178;4.138;2023-05-07T12:37:10;1.77;;;1.50;;
76171;SDS011;64929;51.178;4.138;2023-05-07T12:39:37;3.22;;;1.70;;
76171;SDS011;64929;51.178;4.138;2023-05-07T12:42:04;1.55;;;1.27;;
76171;SDS011;64929;51.178;4.138;2023-05-07T12:44:30;1.20;;;1.10;;
76171;SDS011;64929;51.178;4.138;2023-05-07T12:47:05;2.05;;;1.55;;
76171;SDS011;64929;51.178;4.138;2023-05-07T12:49:34;1.48;;;1.25;;
76171;SDS011;64929;51.178;4.138;2023-05-07T12:52:02;2.90;;;1.10;;
76171;SDS011;64929;51.178;4.138;2023-05-07T12:54:29;5.07;;;2.17;;
76171;SDS011;64929;51.178;4.138;2023-05-07T12:57:04;1.48;;;1.23;;
76171;SDS011;64929;51.178;4.138;2023-05-07T12:59:35;2.90;;;1.30;;
76171;SDS011;64929;51.178;4.138;2023-05-07T13:02:02;2.33;;;1.40;;
76171;SDS011;64929;51.178;4.138;2023-05-07T13:04:28;1.20;;;1.10;;
76171;SDS011;64929;51.178;4.138;2023-05-07T13:06:53;1.23;;;0.93;;
76171;SDS011;64929;51.178;4.138;2023-05-07T13:09:19;3.00;;;1.00;;
76171;SDS011;64929;51.178;4.138;2023-05-07T13:11:45;0.90;;;0.90;;
76171;SDS011;64929;51.178;4.138;2023-05-07T13:14:11;1.00;;;0.80;;
76171;SDS011;64929;51.178;4.138;2023-05-07T13:16:37;1.30;;;1.05;;
76171;SDS011;64929;51.178;4.138;2023-05-07T13:19:02;2.33;;;0.98;;
76171;SDS011;64929;51.178;4.138;2023-05-07T13:21:29;1.35;;;1.00;;
76171;SDS011;64929;51.178;4.138;2023-05-07T13:23:56;1.02;;;0.98;;
76171;SDS011;64929;51.178;4.138;2023-05-07T13:26:23;2.03;;;1.20;;
76171;SDS011;64929;51.178;4.138;2023-05-07T13:28:49;1.42;;;1.30;;
76171;SDS011;64929;51.178;4.138;2023-05-07T13:31:15;1.45;;;1.08;;
76171;SDS011;64929;51.178;4.138;2023-05-07T13:36:11;1.98;;;1.38;;
76171;SDS011;64929;51.178;4.138;2023-05-07T13:38:37;1.70;;;1.60;;
76171;SDS011;64929;51.178;4.138;2023-05-07T13:41:03;2.78;;;1.67;;
76171;SDS011;64929;51.178;4.138;2023-05-07T13:43:29;1.88;;;1.67;;
76171;SDS011;64929;51.178;4.138;2023-05-07T13:45:55;2.45;;;1.50;;
76171;SDS011;64929;51.178;4.138;2023-05-07T13:48:20;1.95;;;1.55;;
76171;SDS011;64929;51.178;4.138;2023-05-07T13:50:46;2.20;;;1.30;;
76171;SDS011;64929;51.178;4.138;2023-05-07T13:53:12;1.42;;;1.33;;
76171;SDS011;64929;51.178;4.138;2023-05-07T13:55:37;2.60;;;0.80;;
76171;SDS011;64929;51.178;4.138;2023-05-07T13:58:03;0.90;;;0.90;;
76171;SDS011;64929;51.178;4.138;2023-05-07T14:00:29;1.60;;;0.98;;
76171;SDS011;64929;51.178;4.138;2023-05-07T14:02:55;0.80;;;0.80;;
76171;SDS011;64929;51.178;4.138;2023-05-07T14:05:21;1.50;;;1.20;;
76171;SDS011;64929;51.178;4.138;2023-05-07T14:07:48;1.13;;;1.02;;
76171;SDS011;64929;51.178;4.138;2023-05-07T14:10:16;1.25;;;1.00;;
76171;SDS011;64929;51.178;4.138;2023-05-07T14:12:43;1.27;;;1.17;;
76171;SDS011;64929;51.178;4.138;2023-05-07T14:15:10;1.35;;;1.25;;
76171;SDS011;64929;51.178;4.138;2023-05-07T14:17:36;1.50;;;1.40;;
76171;SDS011;64929;51.178;4.138;2023-05-07T14:20:02;1.33;;;1.08;;
76171;SDS011;64929;51.178;4.138;2023-05-07T14:22:28;1.38;;;1.02;;
76171;SDS011;64929;51.178;4.138;2023-05-07T14:24:54;0.80;;;0.80;;
76171;SDS011;64929;51.178;4.138;2023-05-07T14:27:19;1.77;;;0.90;;
76171;SDS011;64929;51.178;4.138;2023-05-07T14:29:45;1.38;;;1.20;;
76171;SDS011;64929;51.178;4.138;2023-05-07T14:32:15;2.17;;;1.17;;
76171;SDS011;64929;51.178;4.138;2023-05-07T14:34:44;1.17;;;1.08;;
76171;SDS011;64929;51.178;4.138;2023-05-07T14:37:10;1.15;;;1.02;;
76171;SDS011;64929;51.178;4.138;2023-05-07T14:39:36;1.27;;;1.08;;
76171;SDS011;64929;51.178;4.138;2023-05-07T14:42:02;1.50;;;1.10;;
76171;SDS011;64929;51.178;4.138;2023-05-07T14:44:28;1.27;;;1.00;;
76171;SDS011;64929;51.178;4.138;2023-05-07T14:46:54;0.70;;;0.70;;
76171;SDS011;64929;51.178;4.138;2023-05-07T14:49:20;1.95;;;1.02;;
76171;SDS011;64929;51.178;4.138;2023-05-07T14:51:46;3.72;;;1.15;;
76171;SDS011;64929;51.178;4.138;2023-05-07T14:54:12;1.13;;;0.90;;
76171;SDS011;64929;51.178;4.138;2023-05-07T14:56:38;0.70;;;0.70;;
76171;SDS011;64929;51.178;4.138;2023-05-07T14:59:05;1.05;;;1.02;;
76171;SDS011;64929;51.178;4.138;2023-05-07T15:01:31;0.80;;;0.80;;
76171;SDS011;64929;51.178;4.138;2023-05-07T15:03:59;1.10;;;0.90;;
76171;SDS011;64929;51.178;4.138;2023-05-07T15:06:25;1.13;;;0.82;;